createdAt,value
2018-08-22T00:01:38.853Z,18.15
2018-08-22T00:04:07.998Z,18.77
2018-08-22T00:06:37.306Z,17.77
2018-08-22T00:09:07.927Z,17.57
2018-08-22T00:11:36.792Z,18.48
2018-08-22T00:14:05.665Z,19.87
2018-08-22T00:16:34.475Z,20.60
2018-08-22T00:19:03.285Z,20.17
2018-08-22T00:21:32.104Z,21.10
2018-08-22T00:24:00.934Z,21.20
2018-08-22T00:26:29.801Z,20.45
2018-08-22T00:28:58.620Z,20.68
2018-08-22T00:31:27.467Z,20.92
2018-08-22T00:33:56.316Z,21.27
2018-08-22T00:36:25.572Z,20.82
2018-08-22T00:38:54.397Z,21.55
2018-08-22T00:41:23.226Z,21.60
2018-08-22T00:43:52.080Z,22.20
2018-08-22T00:46:20.910Z,21.02
2018-08-22T00:48:49.713Z,20.50
2018-08-22T00:51:18.626Z,20.45
2018-08-22T00:53:47.485Z,21.30
2018-08-22T00:56:16.324Z,22.13
2018-08-22T00:58:45.183Z,23.95
2018-08-22T01:01:14.002Z,23.62
2018-08-22T01:03:42.903Z,22.90
2018-08-22T01:06:11.717Z,24.40
2018-08-22T01:08:40.556Z,23.98
2018-08-22T01:11:09.417Z,23.75
2018-08-22T01:13:38.250Z,23.87
2018-08-22T01:16:07.310Z,22.60
2018-08-22T01:18:36.186Z,24.07
2018-08-22T01:21:05.750Z,23.77
2018-08-22T01:23:34.941Z,24.20
2018-08-22T01:26:03.790Z,23.47
2018-08-22T01:28:32.650Z,22.55
2018-08-22T01:31:01.495Z,22.27
2018-08-22T01:33:30.331Z,22.37
2018-08-22T01:35:59.183Z,22.73
2018-08-22T01:38:28.022Z,24.27
2018-08-22T01:40:56.885Z,22.55
2018-08-22T01:43:26.746Z,22.93
2018-08-22T01:45:55.593Z,22.77
2018-08-22T01:48:24.400Z,22.98
2018-08-22T01:50:53.242Z,22.70
2018-08-22T01:53:22.073Z,23.18
2018-08-22T01:55:50.929Z,23.00
2018-08-22T01:58:19.787Z,23.73
2018-08-22T02:00:48.631Z,23.90
2018-08-22T02:03:17.503Z,23.42
2018-08-22T02:05:46.407Z,23.75
2018-08-22T02:08:15.234Z,24.20
2018-08-22T02:10:44.095Z,25.27
2018-08-22T02:13:13.586Z,24.52
2018-08-22T02:15:42.462Z,24.55
2018-08-22T02:18:11.291Z,24.92
2018-08-22T02:20:40.137Z,23.30
2018-08-22T02:23:08.979Z,24.77
2018-08-22T02:25:37.853Z,24.32
2018-08-22T02:28:06.673Z,24.43
2018-08-22T02:30:35.871Z,24.15
2018-08-22T02:33:04.737Z,25.00
2018-08-22T02:35:33.739Z,23.83
2018-08-22T02:38:02.603Z,23.70
2018-08-22T02:40:31.476Z,23.73
2018-08-22T02:43:00.434Z,23.52
2018-08-22T02:45:29.347Z,23.95
2018-08-22T02:47:58.209Z,25.43
2018-08-22T02:50:27.247Z,26.52
2018-08-22T02:52:56.110Z,24.20
2018-08-22T02:55:24.939Z,25.20
2018-08-22T02:57:53.783Z,25.92
2018-08-22T03:00:22.625Z,25.75
2018-08-22T03:02:51.455Z,25.35
2018-08-22T03:05:20.300Z,26.90
2018-08-22T03:07:49.130Z,26.77
2018-08-22T03:10:17.971Z,26.37
2018-08-22T03:12:46.786Z,27.55
2018-08-22T03:15:15.615Z,26.23
2018-08-22T03:17:44.487Z,26.50
2018-08-22T03:20:13.328Z,25.68
2018-08-22T03:22:42.437Z,24.37
2018-08-22T03:25:11.278Z,26.93
2018-08-22T03:27:40.126Z,27.30
2018-08-22T03:30:08.972Z,26.52
2018-08-22T03:32:37.832Z,27.13
2018-08-22T03:35:07.012Z,27.07
2018-08-22T03:37:35.836Z,26.73
2018-08-22T03:40:04.690Z,26.77
2018-08-22T03:42:33.518Z,26.57
2018-08-22T03:45:02.394Z,26.52
2018-08-22T03:47:31.213Z,27.60
2018-08-22T03:50:00.059Z,27.95
2018-08-22T03:52:28.886Z,29.25
2018-08-22T03:54:57.726Z,30.85
2018-08-22T03:57:26.547Z,29.23
2018-08-22T03:59:55.406Z,29.80
2018-08-22T04:02:24.250Z,29.98
2018-08-22T04:04:53.096Z,28.60
2018-08-22T04:07:21.959Z,28.75
2018-08-22T04:09:50.925Z,26.75
2018-08-22T04:12:19.839Z,28.30
2018-08-22T04:14:48.887Z,29.25
2018-08-22T04:17:17.767Z,28.52
2018-08-22T04:19:46.635Z,28.73
2018-08-22T04:22:16.033Z,30.17
2018-08-22T04:24:44.857Z,29.05
2018-08-22T04:27:13.727Z,28.00
2018-08-22T04:29:42.530Z,28.47
2018-08-22T04:32:11.368Z,29.42
2018-08-22T04:34:40.229Z,29.82
2018-08-22T04:37:09.068Z,27.73
2018-08-22T04:39:37.935Z,29.05
2018-08-22T04:42:06.783Z,29.12
2018-08-22T04:44:35.681Z,27.67
2018-08-22T04:47:04.927Z,28.40
2018-08-22T04:49:33.806Z,26.00
2018-08-22T04:52:02.740Z,27.50
2018-08-22T04:54:31.836Z,28.67
2018-08-22T04:57:00.770Z,30.15
2018-08-22T04:59:29.616Z,29.85
2018-08-22T05:01:58.212Z,29.10
2018-08-22T05:04:27.074Z,28.23
2018-08-22T05:06:55.987Z,28.57
2018-08-22T05:09:24.811Z,27.73
2018-08-22T05:11:53.664Z,28.47
2018-08-22T05:14:22.527Z,27.98
2018-08-22T05:16:51.379Z,28.55
2018-08-22T05:19:19.738Z,26.67
2018-08-22T05:21:48.664Z,26.62
2018-08-22T05:24:17.799Z,26.77
2018-08-22T05:26:46.628Z,27.75
2018-08-22T05:29:15.462Z,26.52
2018-08-22T05:31:44.340Z,27.32
2018-08-22T05:34:13.209Z,26.57
2018-08-22T05:36:42.084Z,27.35
2018-08-22T05:39:12.547Z,25.92
2018-08-22T05:41:41.983Z,24.57
2018-08-22T05:44:10.943Z,23.73
2018-08-22T05:46:39.823Z,23.50
2018-08-22T05:49:08.690Z,22.45
2018-08-22T05:51:37.742Z,20.55
2018-08-22T05:54:06.658Z,20.72
2018-08-22T05:56:35.595Z,20.02
2018-08-22T05:59:04.449Z,18.45
2018-08-22T06:01:33.048Z,19.77
2018-08-22T06:04:01.884Z,17.57
2018-08-22T06:06:32.356Z,18.85
2018-08-22T06:09:01.247Z,17.27
2018-08-22T06:11:30.450Z,18.55
2018-08-22T06:13:59.312Z,18.35
2018-08-22T06:16:28.151Z,17.00
2018-08-22T06:18:56.995Z,18.05
2018-08-22T06:21:25.873Z,16.87
2018-08-22T06:23:54.716Z,16.35
2018-08-22T06:26:23.568Z,16.45
2018-08-22T06:28:52.452Z,14.90
2018-08-22T06:31:21.290Z,14.85
2018-08-22T06:33:50.164Z,15.38
2018-08-22T06:36:19.036Z,15.18
2018-08-22T06:38:48.030Z,14.47
2018-08-22T06:41:16.919Z,13.55
2018-08-22T06:43:45.777Z,13.32
2018-08-22T06:46:14.785Z,13.20
2018-08-22T06:48:43.606Z,12.25
2018-08-22T06:51:12.507Z,13.62
2018-08-22T06:53:41.347Z,12.47
2018-08-22T06:56:10.223Z,12.85
2018-08-22T06:58:39.050Z,12.63
2018-08-22T07:01:07.356Z,11.05
2018-08-22T07:03:36.218Z,11.75
2018-08-22T07:06:05.115Z,10.72
2018-08-22T07:08:33.947Z,11.28
2018-08-22T07:11:02.810Z,11.55
2018-08-22T07:13:31.641Z,11.70
2018-08-22T07:16:00.467Z,11.70
2018-08-22T07:18:29.333Z,12.50
2018-08-22T07:20:58.209Z,10.23
2018-08-22T07:23:27.242Z,11.10
2018-08-22T07:25:56.089Z,10.82
2018-08-22T07:28:24.917Z,11.20
2018-08-22T07:30:53.770Z,11.75
2018-08-22T07:33:22.663Z,12.53
2018-08-22T07:35:51.595Z,12.45
2018-08-22T07:38:20.636Z,13.50
2018-08-22T07:40:49.503Z,14.60
2018-08-22T07:43:18.406Z,14.65
2018-08-22T07:45:47.449Z,13.22
2018-08-22T07:48:16.305Z,12.35
2018-08-22T07:50:45.172Z,12.10
2018-08-22T07:53:14.122Z,12.68
2018-08-22T07:55:43.459Z,12.78
2018-08-22T07:58:12.339Z,13.32
2018-08-22T08:00:41.582Z,15.63
2018-08-22T08:03:10.126Z,14.23
2018-08-22T08:05:39.005Z,15.00
2018-08-22T08:08:07.927Z,15.30
2018-08-22T08:10:37.430Z,14.53
2018-08-22T08:13:13.608Z,16.12
2018-08-22T08:15:42.749Z,15.50
2018-08-22T08:18:11.684Z,16.77
2018-08-22T08:20:40.816Z,16.57
2018-08-22T08:23:09.733Z,15.63
2018-08-22T08:25:38.628Z,15.80
2018-08-22T08:28:07.492Z,18.75
2018-08-22T08:30:36.420Z,17.98
2018-08-22T08:33:05.811Z,17.00
2018-08-22T08:35:34.928Z,17.90
2018-08-22T08:38:04.025Z,18.95
2018-08-22T08:40:32.867Z,19.65
2018-08-22T08:43:02.355Z,19.37
2018-08-22T08:45:31.223Z,18.75
2018-08-22T08:48:00.061Z,19.05
2018-08-22T08:50:29.003Z,18.65
2018-08-22T08:52:58.020Z,18.07
2018-08-22T08:55:26.892Z,17.27
2018-08-22T08:57:55.747Z,15.93
2018-08-22T09:00:24.760Z,16.77
2018-08-22T09:02:53.307Z,17.30
2018-08-22T09:05:22.268Z,16.30
2018-08-22T09:07:51.136Z,17.57
2018-08-22T09:10:20.005Z,16.45
2018-08-22T09:12:48.910Z,15.93
2018-08-22T09:15:17.741Z,15.63
2018-08-22T09:17:46.686Z,16.37
2018-08-22T09:20:15.696Z,13.20
2018-08-22T09:22:44.552Z,13.90
2018-08-22T09:25:13.359Z,13.88
2018-08-22T09:27:42.222Z,13.20
2018-08-22T09:30:11.072Z,11.48
2018-08-22T09:32:39.925Z,11.15
2018-08-22T09:35:08.770Z,11.90
2018-08-22T09:37:37.635Z,13.32
2018-08-22T09:40:06.510Z,13.13
2018-08-22T09:42:35.516Z,13.25
2018-08-22T09:45:04.571Z,12.45
2018-08-22T09:47:33.458Z,12.00
2018-08-22T09:50:02.353Z,12.18
2018-08-22T09:52:31.405Z,12.03
2018-08-22T09:55:01.764Z,12.05
2018-08-22T09:57:31.164Z,12.05
2018-08-22T10:00:00.106Z,11.33
2018-08-22T10:02:28.566Z,10.10
2018-08-22T10:04:58.781Z,11.15
2018-08-22T10:07:27.663Z,11.33
2018-08-22T10:09:56.684Z,11.05
2018-08-22T10:12:25.735Z,11.25
2018-08-22T10:14:54.594Z,11.53
2018-08-22T10:17:23.462Z,10.65
2018-08-22T10:19:52.504Z,11.75
2018-08-22T10:22:21.360Z,12.68
2018-08-22T10:24:50.248Z,11.80
2018-08-22T10:27:19.082Z,11.88
2018-08-22T10:29:47.937Z,13.20
2018-08-22T10:32:16.788Z,12.80
2018-08-22T10:34:45.671Z,12.10
2018-08-22T10:37:14.520Z,10.45
2018-08-22T10:39:43.093Z,9.37
2018-08-22T10:42:11.820Z,9.57
2018-08-22T10:44:40.397Z,9.37
2018-08-22T10:47:08.937Z,9.47
2018-08-22T10:49:37.501Z,7.63
2018-08-22T10:52:06.229Z,7.67
2018-08-22T10:54:35.009Z,9.43
2018-08-22T10:57:03.543Z,8.33
2018-08-22T10:59:32.623Z,8.37
2018-08-22T11:02:01.272Z,8.33
2018-08-22T11:04:29.943Z,9.23
2018-08-22T11:06:58.485Z,9.90
2018-08-22T11:09:27.315Z,7.47
2018-08-22T11:11:55.910Z,8.73
2018-08-22T11:14:24.743Z,9.08
2018-08-22T11:16:53.659Z,8.53
2018-08-22T11:19:22.188Z,8.33
2018-08-22T11:22:02.275Z,8.15
2018-08-22T11:24:42.004Z,9.77
2018-08-22T11:27:22.133Z,9.18
2018-08-22T11:30:01.940Z,9.37
2018-08-22T11:32:42.348Z,5.72
2018-08-22T11:35:10.171Z,5.83
2018-08-22T11:37:39.078Z,6.37
2018-08-22T11:40:07.904Z,6.00
2018-08-22T11:42:36.863Z,5.83
2018-08-22T11:45:05.683Z,5.53
2018-08-22T11:47:34.815Z,5.17
2018-08-22T11:50:03.691Z,5.12
2018-08-22T11:52:32.579Z,5.47
2018-08-22T11:55:01.447Z,4.45
2018-08-22T11:57:30.284Z,4.35
2018-08-22T11:59:59.132Z,4.20
2018-08-22T12:02:27.658Z,4.20
2018-08-22T12:04:56.200Z,4.10
2018-08-22T12:07:24.749Z,5.03
2018-08-22T12:09:53.678Z,5.62
2018-08-22T12:12:22.547Z,4.90
2018-08-22T12:14:51.427Z,5.60
2018-08-22T12:17:20.296Z,5.65
2018-08-22T12:19:49.144Z,5.40
2018-08-22T12:22:18.067Z,6.70
2018-08-22T12:24:46.933Z,5.20
2018-08-22T12:27:15.826Z,5.47
2018-08-22T12:29:44.614Z,5.67
2018-08-22T12:32:13.420Z,5.53
2018-08-22T12:34:42.260Z,5.42
2018-08-22T12:37:11.099Z,6.33
2018-08-22T12:39:40.260Z,5.80
2018-08-22T12:42:09.079Z,6.33
2018-08-22T12:44:37.977Z,5.58
2018-08-22T12:47:06.948Z,6.80
2018-08-22T12:49:35.798Z,6.17
2018-08-22T12:52:04.641Z,6.42
2018-08-22T12:54:33.171Z,7.27
2018-08-22T12:57:02.032Z,6.95
2018-08-22T12:59:31.637Z,6.20
2018-08-22T13:02:00.188Z,6.47
2018-08-22T13:04:29.100Z,5.65
2018-08-22T13:06:57.961Z,6.65
2018-08-22T13:09:26.783Z,6.03
2018-08-22T13:11:55.651Z,6.22
2018-08-22T13:14:24.500Z,5.67
2018-08-22T13:16:53.492Z,7.37
2018-08-22T13:22:15.900Z,7.15
2018-08-22T13:24:44.728Z,7.55
2018-08-22T13:27:13.857Z,8.05
2018-08-22T13:29:42.919Z,8.33
2018-08-22T13:32:11.727Z,7.58
2018-08-22T13:34:40.556Z,7.17
2018-08-22T13:37:09.092Z,8.60
2018-08-22T13:39:38.493Z,7.85
2018-08-22T13:42:07.223Z,9.17
2018-08-22T13:44:36.270Z,8.83
2018-08-22T13:47:04.808Z,9.20
2018-08-22T13:49:33.671Z,9.00
2018-08-22T13:52:02.301Z,8.23
2018-08-22T13:54:31.261Z,7.78
2018-08-22T13:57:00.493Z,8.98
2018-08-22T13:59:29.383Z,8.15
2018-08-22T14:01:57.957Z,7.80
2018-08-22T14:04:26.857Z,8.93
2018-08-22T14:06:55.720Z,8.58
2018-08-22T14:09:24.630Z,7.80
2018-08-22T14:11:53.828Z,8.83
2018-08-22T14:14:22.736Z,9.70
2018-08-22T14:16:51.666Z,7.92
2018-08-22T14:19:21.814Z,7.77
2018-08-22T14:21:50.722Z,8.03
2018-08-22T14:24:19.597Z,8.10
2018-08-22T14:26:48.491Z,8.68
2018-08-22T14:29:17.365Z,8.00
2018-08-22T14:31:46.264Z,8.13
2018-08-22T14:34:14.822Z,9.30
2018-08-22T14:36:43.752Z,8.18
2018-08-22T14:39:13.627Z,9.40
2018-08-22T14:41:43.218Z,9.48
2018-08-22T14:44:12.067Z,7.40
2018-08-22T14:46:40.962Z,8.40
2018-08-22T14:49:09.555Z,8.83
2018-08-22T14:51:38.224Z,8.53
2018-08-22T14:54:06.883Z,7.67
2018-08-22T14:56:35.923Z,8.05
2018-08-22T14:59:05.134Z,7.87
2018-08-22T15:01:33.737Z,7.73
2018-08-22T15:04:02.694Z,6.97
2018-08-22T15:06:31.312Z,8.30
2018-08-22T15:09:05.351Z,7.70
2018-08-22T15:11:35.640Z,7.77
2018-08-22T15:14:04.620Z,8.20
2018-08-22T15:16:33.234Z,7.30
2018-08-22T15:19:01.817Z,8.40
2018-08-22T15:21:30.407Z,6.77
2018-08-22T15:23:59.000Z,6.40
2018-08-22T15:26:27.577Z,6.27
2018-08-22T15:28:56.311Z,6.70
2018-08-22T15:31:24.942Z,7.47
2018-08-22T15:33:53.606Z,5.00
2018-08-22T15:36:22.828Z,5.10
2018-08-22T15:38:51.600Z,5.57
2018-08-22T15:41:20.221Z,5.80
2018-08-22T15:43:49.003Z,5.27
2018-08-22T15:46:17.607Z,6.10
2018-08-22T15:48:46.258Z,6.13
2018-08-22T15:51:15.116Z,5.57
2018-08-22T15:53:44.125Z,6.17
2018-08-22T15:56:12.725Z,7.00
2018-08-22T15:58:41.983Z,6.30
2018-08-22T16:01:10.756Z,5.10
2018-08-22T16:03:39.342Z,5.60
2018-08-22T16:06:08.264Z,5.13
2018-08-22T16:08:36.823Z,4.30
2018-08-22T16:11:07.645Z,5.13
2018-08-22T16:13:37.458Z,4.37
2018-08-22T16:16:06.032Z,4.23
2018-08-22T16:18:34.621Z,4.73
2018-08-22T16:21:04.781Z,4.47
2018-08-22T16:23:34.572Z,5.57
2018-08-22T16:26:04.696Z,5.50
2018-08-22T16:28:45.538Z,4.83
2018-08-22T16:31:14.151Z,5.13
2018-08-22T16:33:42.869Z,5.67
2018-08-22T16:36:15.710Z,5.40
2018-08-22T16:38:44.312Z,4.40
2018-08-22T16:41:12.868Z,5.73
2018-08-22T16:43:43.446Z,4.73
2018-08-22T16:46:14.221Z,4.87
2018-08-22T16:48:44.060Z,4.57
2018-08-22T16:51:12.666Z,4.73
2018-08-22T16:53:41.287Z,5.70
2018-08-22T16:56:09.839Z,5.57
2018-08-22T16:58:38.395Z,4.67
2018-08-22T17:01:06.688Z,4.90
2018-08-22T17:03:35.570Z,5.80
2018-08-22T17:06:09.901Z,5.00
2018-08-22T17:08:38.742Z,5.10
2018-08-22T17:11:08.286Z,5.05
2018-08-22T17:13:43.690Z,5.90
2018-08-22T17:16:12.583Z,5.20
2018-08-22T17:18:41.811Z,5.65
2018-08-22T17:21:10.994Z,5.25
2018-08-22T17:23:40.222Z,6.37
2018-08-22T17:26:11.847Z,6.12
2018-08-22T17:28:42.793Z,6.47
2018-08-22T17:31:12.411Z,7.17
2018-08-22T17:33:43.535Z,7.95
2018-08-22T17:36:12.967Z,6.53
2018-08-22T17:38:43.577Z,7.20
2018-08-22T17:41:12.740Z,6.65
2018-08-22T17:44:10.590Z,8.40
2018-08-22T17:46:42.538Z,7.65
2018-08-22T17:49:11.403Z,8.23
2018-08-22T17:52:05.067Z,10.10
2018-08-22T17:54:34.190Z,8.38
2018-08-22T17:57:15.370Z,8.58
2018-08-22T18:02:37.118Z,10.77
2018-08-22T18:05:06.368Z,10.78
2018-08-22T18:07:35.217Z,11.05
2018-08-22T18:10:04.142Z,12.00
2018-08-22T18:12:33.024Z,11.65
2018-08-22T18:15:03.107Z,11.10
2018-08-22T18:17:32.018Z,12.45
2018-08-22T18:20:01.228Z,12.73
2018-08-22T18:22:32.112Z,12.50
2018-08-22T18:25:08.100Z,11.93
2018-08-22T18:27:37.011Z,13.03
2018-08-22T18:30:09.093Z,12.45
2018-08-22T18:32:38.031Z,12.88
2018-08-22T18:35:10.037Z,12.03
2018-08-22T18:37:39.424Z,11.70
2018-08-22T18:40:17.624Z,13.30
2018-08-22T18:42:48.298Z,13.35
2018-08-22T18:45:17.593Z,12.88
2018-08-22T18:47:46.506Z,13.62
2018-08-22T18:50:15.400Z,12.80
2018-08-22T18:52:47.516Z,12.73
2018-08-22T18:55:16.790Z,12.65
2018-08-22T18:57:45.747Z,11.40
2018-08-22T19:00:14.684Z,9.98
2018-08-22T19:02:43.488Z,9.73
2018-08-22T19:05:23.496Z,8.85
2018-08-22T19:08:08.896Z,9.35
2018-08-22T19:10:39.104Z,8.88
2018-08-22T19:13:14.408Z,8.58
2018-08-22T19:15:46.976Z,9.10
2018-08-22T19:18:15.915Z,10.00
2018-08-22T19:20:44.862Z,9.30
2018-08-22T19:23:13.797Z,10.25
2018-08-22T19:25:45.296Z,10.30
2018-08-22T19:30:56.080Z,10.98
2018-08-22T19:33:26.145Z,11.57
2018-08-22T19:35:55.292Z,12.10
2018-08-22T19:38:25.705Z,11.38
2018-08-22T19:40:54.796Z,11.83
2018-08-22T19:43:23.783Z,11.80
2018-08-22T19:45:52.727Z,11.80
2018-08-22T19:48:22.018Z,11.65
2018-08-22T19:50:51.125Z,12.88
2018-08-22T19:53:20.082Z,12.20
2018-08-22T19:55:49.132Z,13.45
2018-08-22T19:58:28.161Z,12.63
2018-08-22T20:00:58.727Z,12.33
2018-08-22T20:03:31.932Z,13.30
2018-08-22T20:06:00.852Z,13.38
2018-08-22T20:08:36.659Z,13.32
2018-08-22T20:11:05.976Z,13.53
2018-08-22T20:13:47.232Z,13.90
2018-08-22T20:16:16.873Z,13.78
2018-08-22T20:18:48.072Z,13.00
2018-08-22T20:21:21.371Z,13.43
2018-08-22T20:23:51.714Z,13.85
2018-08-22T20:26:20.904Z,15.30
2018-08-22T20:28:52.835Z,15.95
2018-08-22T20:31:21.831Z,17.12
2018-08-22T20:34:02.703Z,16.60
2018-08-22T20:36:32.017Z,16.73
2018-08-22T20:39:07.138Z,16.87
2018-08-22T20:41:36.847Z,17.17
2018-08-22T20:44:09.604Z,18.00
2018-08-22T20:46:38.709Z,18.65
2018-08-22T20:49:07.786Z,19.27
2018-08-22T20:51:36.674Z,19.82
2018-08-22T20:54:10.857Z,20.12
2018-08-22T20:57:12.544Z,20.30
2018-08-22T20:59:41.630Z,20.97
2018-08-22T21:02:11.163Z,20.52
2018-08-22T21:04:40.507Z,22.30
2018-08-22T21:07:09.888Z,21.10
2018-08-22T21:09:38.864Z,22.45
2018-08-22T21:12:08.223Z,22.48
2018-08-22T21:14:37.281Z,22.55
2018-08-22T21:17:06.658Z,22.87
2018-08-22T21:19:36.293Z,22.35
2018-08-22T21:22:15.719Z,23.18
2018-08-22T21:24:45.123Z,24.40
2018-08-22T21:27:15.055Z,23.45
2018-08-22T21:29:44.467Z,24.12
2018-08-22T21:32:13.485Z,23.98
2018-08-22T21:34:42.508Z,24.72
2018-08-22T21:37:21.070Z,25.08
2018-08-22T21:39:50.345Z,24.57
2018-08-22T21:42:24.517Z,25.02
2018-08-22T21:44:53.528Z,25.62
2018-08-22T21:47:22.383Z,26.07
2018-08-22T21:49:51.415Z,27.02
2018-08-22T21:52:20.366Z,28.05
2018-08-22T21:54:49.404Z,29.37
2018-08-22T21:57:18.510Z,29.90
2018-08-22T21:59:55.494Z,31.23
2018-08-22T22:02:24.445Z,31.00
2018-08-22T22:04:53.500Z,31.70
2018-08-22T22:07:22.509Z,33.50
2018-08-22T22:09:52.032Z,34.98
2018-08-22T22:12:26.273Z,33.70
2018-08-22T22:14:55.221Z,35.00
2018-08-22T22:17:24.888Z,34.98
2018-08-22T22:19:53.829Z,35.35
2018-08-22T22:22:22.740Z,35.92
2018-08-22T22:24:56.960Z,35.70
2018-08-22T22:27:26.061Z,35.20
2018-08-22T22:30:00.432Z,35.70
2018-08-22T22:32:29.535Z,36.63
2018-08-22T22:34:58.456Z,35.98
2018-08-22T22:37:27.571Z,35.92
2018-08-22T22:39:56.511Z,36.50
2018-08-22T22:42:26.532Z,34.55
2018-08-22T22:44:57.055Z,36.13
2018-08-22T22:47:30.173Z,36.23
2018-08-22T22:49:59.798Z,35.38
2018-08-22T22:52:31.347Z,36.08
2018-08-22T22:55:02.409Z,35.50
2018-08-22T22:57:32.634Z,36.38
2018-08-22T23:00:04.423Z,34.53
2018-08-22T23:02:33.823Z,35.90
2018-08-22T23:05:02.969Z,37.78
2018-08-22T23:07:33.812Z,36.88
2018-08-22T23:10:06.717Z,36.53
2018-08-22T23:12:38.614Z,36.95
2018-08-22T23:15:12.563Z,35.68
2018-08-22T23:17:41.883Z,37.42
2018-08-22T23:23:21.734Z,37.40
2018-08-22T23:25:50.809Z,36.42
2018-08-22T23:28:19.711Z,36.95
2018-08-22T23:30:49.012Z,35.95
2018-08-22T23:33:18.040Z,37.67
2018-08-22T23:35:46.935Z,36.03
2018-08-22T23:38:21.222Z,35.35
2018-08-22T23:40:50.111Z,35.00
2018-08-22T23:43:19.009Z,36.55
2018-08-22T23:45:53.211Z,35.55
2018-08-22T23:48:27.579Z,34.73
2018-08-22T23:50:57.591Z,34.70
2018-08-22T23:53:47.259Z,34.67
2018-08-22T23:56:26.707Z,33.73
2018-08-22T23:58:56.209Z,34.53
